Time;durP1;ratioP1;P1;durP2;ratioP2;P2;SDS_P1;SDS_P2;PMS_P1;PMS_P2;Temp;Humidity;BMP_temperature;BMP_pressure;BME280_temperature;BME280_humidity;BME280_pressure;Samples;Min_cycle;Max_cycle;Signal;HPM_P1;HPM_P2
2024/01/08 00:00:21;;;;;;;7.30;5.18;;;;;;;;;;5037458;28;20117;-78
2024/01/08 00:02:47;;;;;;;11.85;5.75;;;;;;;;;;5047665;28;20025;-78
2024/01/08 00:05:14;;;;;;;16.88;9.07;;;;;;;;;;5056304;28;20036;-77
2024/01/08 00:07:40;;;;;;;11.75;6.13;;;;;;;;;;5045000;28;20018;-79
2024/01/08 00:10:06;;;;;;;10.68;6.53;;;;;;;;;;5042187;28;20029;-78
2024/01/08 00:12:32;;;;;;;8.63;5.80;;;;;;;;;;5047453;28;20484;-78
2024/01/08 00:14:59;;;;;;;12.75;6.70;;;;;;;;;;5051629;28;20061;-76
2024/01/08 00:17:25;;;;;;;8.82;6.43;;;;;;;;;;5045347;28;20029;-77
2024/01/08 00:19:51;;;;;;;8.68;5.63;;;;;;;;;;5047774;28;20029;-76
2024/01/08 00:22:17;;;;;;;12.82;6.15;;;;;;;;;;5047116;28;20029;-80
2024/01/08 00:24:43;;;;;;;10.90;6.78;;;;;;;;;;5042014;28;20052;-77
2024/01/08 00:27:09;;;;;;;8.95;5.35;;;;;;;;;;5062827;28;20029;-77
2024/01/08 00:29:36;;;;;;;9.15;5.35;;;;;;;;;;5047806;28;20057;-79
2024/01/08 00:32:03;;;;;;;8.95;5.47;;;;;;;;;;5061339;28;20025;-77
2024/01/08 00:34:29;;;;;;;8.30;5.25;;;;;;;;;;5062970;28;20055;-76
2024/01/08 00:36:55;;;;;;;8.25;5.32;;;;;;;;;;5056609;28;20118;-77
2024/01/08 00:39:21;;;;;;;9.18;5.78;;;;;;;;;;5047113;28;20033;-77
2024/01/08 00:41:47;;;;;;;9.30;5.55;;;;;;;;;;5026903;28;20030;-77
2024/01/08 00:44:14;;;;;;;8.27;5.38;;;;;;;;;;5032345;28;20033;-75
2024/01/08 00:46:40;;;;;;;10.18;6.03;;;;;;;;;;5057308;28;20033;-76
2024/01/08 00:49:06;;;;;;;8.02;4.85;;;;;;;;;;5049408;28;20033;-76
2024/01/08 00:51:32;;;;;;;6.20;4.13;;;;;;;;;;5030104;28;20041;-76
2024/01/08 00:53:58;;;;;;;7.82;4.93;;;;;;;;;;5029444;28;20091;-78
2024/01/08 00:56:24;;;;;;;11.30;5.85;;;;;;;;;;5035259;28;20083;-77
2024/01/08 00:58:51;;;;;;;7.47;4.60;;;;;;;;;;5052457;28;20078;-78
2024/01/08 01:01:17;;;;;;;9.90;5.68;;;;;;;;;;5027811;28;20022;-78
2024/01/08 01:03:43;;;;;;;9.35;4.95;;;;;;;;;;5036116;28;20464;-79
2024/01/08 01:06:09;;;;;;;8.43;5.38;;;;;;;;;;5036126;28;20056;-78
2024/01/08 01:08:36;;;;;;;9.55;4.88;;;;;;;;;;5022477;28;20033;-81
2024/01/08 01:11:02;;;;;;;6.82;4.65;;;;;;;;;;5056249;28;20021;-78
2024/01/08 01:13:29;;;;;;;7.25;5.05;;;;;;;;;;5040107;28;20388;-77
2024/01/08 01:15:55;;;;;;;6.30;4.50;;;;;;;;;;5050975;28;20113;-78
2024/01/08 01:18:21;;;;;;;7.93;4.50;;;;;;;;;;5027719;28;20039;-78
2024/01/08 01:20:47;;;;;;;5.57;4.13;;;;;;;;;;5039477;28;20021;-78
2024/01/08 01:23:14;;;;;;;6.70;4.35;;;;;;;;;;5046855;28;20025;-78
2024/01/08 01:25:40;;;;;;;9.95;5.38;;;;;;;;;;5036110;28;20032;-77
2024/01/08 01:28:06;;;;;;;7.10;4.15;;;;;;;;;;5049999;28;20480;-78
2024/01/08 01:30:32;;;;;;;7.07;4.00;;;;;;;;;;5044386;28;20045;-77
2024/01/08 01:32:58;;;;;;;6.70;4.03;;;;;;;;;;5041669;28;20022;-78
2024/01/08 01:35:24;;;;;;;6.80;3.92;;;;;;;;;;5063197;28;20037;-78
2024/01/08 01:37:50;;;;;;;4.95;3.42;;;;;;;;;;5036307;28;20041;-78
2024/01/08 01:40:16;;;;;;;5.88;3.70;;;;;;;;;;5037297;28;20033;-78
2024/01/08 01:42:42;;;;;;;5.65;3.53;;;;;;;;;;5040284;28;20504;-77
2024/01/08 01:45:09;;;;;;;6.95;3.53;;;;;;;;;;5032179;28;20044;-78
2024/01/08 01:47:35;;;;;;;5.82;4.22;;;;;;;;;;5061544;28;20029;-78
2024/01/08 01:50:01;;;;;;;4.13;2.88;;;;;;;;;;5027284;28;20097;-79
2024/01/08 01:52:27;;;;;;;9.73;4.43;;;;;;;;;;5048113;28;20443;-79
2024/01/08 01:54:54;;;;;;;5.57;4.03;;;;;;;;;;5039875;28;20025;-77
2024/01/08 01:57:20;;;;;;;3.85;3.10;;;;;;;;;;5059761;28;20029;-80
2024/01/08 01:59:46;;;;;;;5.10;3.55;;;;;;;;;;5056725;28;20113;-80
2024/01/08 02:02:14;;;;;;;5.72;3.75;;;;;;;;;;5045806;28;20094;-79
2024/01/08 02:04:41;;;;;;;5.38;3.72;;;;;;;;;;5051955;28;20060;-79
2024/01/08 02:07:08;;;;;;;6.53;4.10;;;;;;;;;;5053366;28;20071;-78
2024/01/08 02:09:34;;;;;;;6.55;4.07;;;;;;;;;;5042596;28;20056;-77
2024/01/08 02:12:01;;;;;;;5.68;3.42;;;;;;;;;;5061221;28;20021;-79
2024/01/08 02:14:27;;;;;;;7.95;3.70;;;;;;;;;;5052897;28;20436;-76
2024/01/08 02:16:53;;;;;;;6.75;4.20;;;;;;;;;;5056309;28;20029;-79
2024/01/08 02:19:19;;;;;;;6.18;3.85;;;;;;;;;;5049582;28;20033;-77
2024/01/08 02:21:46;;;;;;;4.72;3.22;;;;;;;;;;5032440;28;20053;-77
2024/01/08 02:24:12;;;;;;;7.93;4.50;;;;;;;;;;5033258;28;20361;-78
2024/01/08 02:26:38;;;;;;;6.72;4.72;;;;;;;;;;5046120;28;20030;-78
2024/01/08 02:29:04;;;;;;;6.20;3.45;;;;;;;;;;5040636;28;20025;-78
2024/01/08 02:31:30;;;;;;;6.53;4.10;;;;;;;;;;5038813;28;20032;-77
2024/01/08 02:33:57;;;;;;;7.80;4.03;;;;;;;;;;5020907;28;20030;-78
2024/01/08 02:36:23;;;;;;;6.65;4.20;;;;;;;;;;5022079;28;20037;-79
2024/01/08 02:38:49;;;;;;;5.18;3.65;;;;;;;;;;5040418;28;20065;-78
2024/01/08 02:41:15;;;;;;;7.40;3.80;;;;;;;;;;5039818;28;20029;-78
2024/01/08 02:43:41;;;;;;;6.53;3.83;;;;;;;;;;5055093;28;20059;-78
2024/01/08 02:46:08;;;;;;;7.65;4.18;;;;;;;;;;5048394;28;20040;-78
2024/01/08 02:48:34;;;;;;;5.85;4.13;;;;;;;;;;5047061;28;20053;-77
2024/01/08 02:51:00;;;;;;;6.30;3.97;;;;;;;;;;5039547;28;20072;-77
2024/01/08 02:53:26;;;;;;;6.45;3.85;;;;;;;;;;5049885;28;20022;-77
2024/01/08 02:55:52;;;;;;;5.05;3.45;;;;;;;;;;5053955;28;20025;-78
2024/01/08 02:58:18;;;;;;;6.32;3.58;;;;;;;;;;5040840;28;20021;-77
2024/01/08 03:00:44;;;;;;;7.28;3.80;;;;;;;;;;5050681;28;20036;-77
2024/01/08 03:03:10;;;;;;;5.90;4.03;;;;;;;;;;5055800;28;20032;-79
2024/01/08 03:05:36;;;;;;;8.20;3.70;;;;;;;;;;5015633;28;20061;-77
2024/01/08 03:08:03;;;;;;;5.15;3.03;;;;;;;;;;5031357;28;20089;-78
2024/01/08 03:10:29;;;;;;;7.05;4.15;;;;;;;;;;5017069;28;20030;-78
2024/01/08 03:12:55;;;;;;;4.18;3.63;;;;;;;;;;5039681;28;20376;-76
2024/01/08 03:15:25;;;;;;;5.82;3.53;;;;;;;;;;5056097;28;20236;-80
2024/01/08 03:17:51;;;;;;;7.10;4.40;;;;;;;;;;5048273;28;20033;-78
2024/01/08 03:20:17;;;;;;;5.10;3.85;;;;;;;;;;5066065;28;20034;-77
2024/01/08 03:22:43;;;;;;;6.13;3.70;;;;;;;;;;5065881;28;20044;-79
2024/01/08 03:25:10;;;;;;;9.32;4.07;;;;;;;;;;5035443;28;20053;-79
2024/01/08 03:27:37;;;;;;;8.57;3.97;;;;;;;;;;5045272;28;20027;-77
2024/01/08 03:30:04;;;;;;;5.55;3.75;;;;;;;;;;5046784;28;20088;-78
2024/01/08 03:32:30;;;;;;;6.60;4.38;;;;;;;;;;5041778;28;20025;-78
2024/01/08 03:34:56;;;;;;;6.22;3.83;;;;;;;;;;5049334;28;20029;-77
2024/01/08 03:37:22;;;;;;;6.38;3.80;;;;;;;;;;5045506;28;20495;-78
2024/01/08 03:39:49;;;;;;;6.57;4.57;;;;;;;;;;5045573;28;20117;-77
2024/01/08 03:42:15;;;;;;;8.45;4.50;;;;;;;;;;5043989;28;20029;-78
2024/01/08 03:44:41;;;;;;;7.47;4.53;;;;;;;;;;5036100;28;20034;-77
2024/01/08 03:47:07;;;;;;;6.78;4.28;;;;;;;;;;5038803;28;20098;-78
2024/01/08 03:49:33;;;;;;;7.68;4.43;;;;;;;;;;5041079;28;20022;-78
2024/01/08 03:51:59;;;;;;;5.75;4.10;;;;;;;;;;5033670;28;20026;-77
2024/01/08 03:54:26;;;;;;;6.65;4.32;;;;;;;;;;5050296;28;20028;-78
2024/01/08 03:56:52;;;;;;;5.93;4.03;;;;;;;;;;5051891;28;20055;-77
2024/01/08 03:59:18;;;;;;;6.80;4.38;;;;;;;;;;5045720;28;20448;-77
2024/01/08 04:01:45;;;;;;;6.32;4.07;;;;;;;;;;5051290;28;20029;-77
2024/01/08 04:04:11;;;;;;;6.60;4.07;;;;;;;;;;5045058;28;20029;-78
2024/01/08 04:06:38;;;;;;;7.20;4.50;;;;;;;;;;5039900;28;20029;-76
2024/01/08 04:09:04;;;;;;;5.47;3.83;;;;;;;;;;5041215;28;20511;-77
2024/01/08 04:11:30;;;;;;;7.65;3.95;;;;;;;;;;5034895;28;20029;-77
2024/01/08 04:13:56;;;;;;;5.75;3.55;;;;;;;;;;5036279;28;20539;-77
2024/01/08 04:16:22;;;;;;;7.22;4.05;;;;;;;;;;5047605;28;20021;-80
2024/01/08 04:18:48;;;;;;;7.10;4.20;;;;;;;;;;5027121;28;20056;-80
2024/01/08 04:21:18;;;;;;;5.55;4.05;;;;;;;;;;5033236;28;20026;-78
2024/01/08 04:23:44;;;;;;;7.63;4.82;;;;;;;;;;5033014;28;20030;-78
2024/01/08 04:26:16;;;;;;;6.85;4.40;;;;;;;;;;5032907;28;20480;-79
2024/01/08 04:28:42;;;;;;;;;;;;;;;;;;5039503;28;20021;-78
2024/01/08 04:31:17;;;;;;;8.88;4.32;;;;;;;;;;5031385;28;19948;-78
2024/01/08 04:33:43;;;;;;;5.32;3.90;;;;;;;;;;5028379;28;20017;-78
2024/01/08 04:36:09;;;;;;;6.72;4.05;;;;;;;;;;5036301;28;20040;-79
2024/01/08 04:38:36;;;;;;;6.75;4.88;;;;;;;;;;5047429;28;20029;-78
2024/01/08 04:41:02;;;;;;;6.55;3.97;;;;;;;;;;5027220;28;20030;-78
2024/01/08 04:43:28;;;;;;;5.55;4.05;;;;;;;;;;5024543;28;20040;-78
2024/01/08 04:45:54;;;;;;;6.22;3.92;;;;;;;;;;5052815;28;20033;-75
2024/01/08 04:48:20;;;;;;;6.47;3.67;;;;;;;;;;5043914;28;20025;-79
2024/01/08 04:50:46;;;;;;;5.78;3.15;;;;;;;;;;5066867;28;20017;-78
2024/01/08 04:53:13;;;;;;;6.30;4.22;;;;;;;;;;5053256;28;20036;-79
2024/01/08 04:55:47;;;;;;;5.97;3.72;;;;;;;;;;5059495;28;20033;-79
2024/01/08 04:58:13;;;;;;;7.28;4.45;;;;;;;;;;5056910;28;20028;-78
2024/01/08 05:00:39;;;;;;;6.28;3.97;;;;;;;;;;5061719;28;20063;-78
2024/01/08 05:03:08;;;;;;;6.85;4.45;;;;;;;;;;5063768;28;20025;-80
2024/01/08 05:05:35;;;;;;;7.78;4.68;;;;;;;;;;5062955;28;20036;-79
2024/01/08 05:08:01;;;;;;;7.57;4.15;;;;;;;;;;5053499;28;20029;-78
2024/01/08 05:10:27;;;;;;;7.72;4.32;;;;;;;;;;5075118;28;20041;-81
2024/01/08 05:12:53;;;;;;;5.80;4.03;;;;;;;;;;5058919;28;20033;-79
2024/01/08 05:15:19;;;;;;;7.03;3.60;;;;;;;;;;5067256;28;20029;-79
2024/01/08 05:17:45;;;;;;;7.03;3.88;;;;;;;;;;5050347;28;20026;-78
2024/01/08 05:20:12;;;;;;;6.53;4.10;;;;;;;;;;5043310;28;20041;-79
2024/01/08 05:22:38;;;;;;;5.63;3.03;;;;;;;;;;5046082;28;20284;-80
2024/01/08 05:25:04;;;;;;;5.63;4.03;;;;;;;;;;5048963;28;20516;-78
2024/01/08 05:27:30;;;;;;;7.03;4.22;;;;;;;;;;5056503;28;20029;-80
2024/01/08 05:29:56;;;;;;;7.45;4.63;;;;;;;;;;5049788;28;20499;-79
2024/01/08 05:32:22;;;;;;;6.80;4.25;;;;;;;;;;5048372;28;20030;-79
2024/01/08 05:34:48;;;;;;;10.07;4.72;;;;;;;;;;5040226;28;20030;-79
2024/01/08 05:37:15;;;;;;;5.03;3.75;;;;;;;;;;5048331;28;20025;-78
2024/01/08 05:39:41;;;;;;;5.05;3.80;;;;;;;;;;5061071;28;20053;-79
2024/01/08 05:42:07;;;;;;;5.43;3.72;;;;;;;;;;5060160;28;20048;-79
2024/01/08 05:44:33;;;;;;;4.70;3.60;;;;;;;;;;5045213;28;20049;-79
2024/01/08 05:46:59;;;;;;;6.00;3.85;;;;;;;;;;5047466;28;20021;-79
2024/01/08 05:49:25;;;;;;;5.53;3.55;;;;;;;;;;5045762;28;20075;-80
2024/01/08 05:51:51;;;;;;;4.40;3.50;;;;;;;;;;5048245;28;20027;-79
2024/01/08 05:54:17;;;;;;;9.20;4.53;;;;;;;;;;5059993;28;20543;-79
2024/01/08 05:56:44;;;;;;;8.05;5.00;;;;;;;;;;5062642;28;20108;-80
2024/01/08 05:59:10;;;;;;;7.72;4.30;;;;;;;;;;5058509;28;20029;-79
2024/01/08 06:01:36;;;;;;;9.07;4.25;;;;;;;;;;5062467;28;20025;-80
2024/01/08 06:04:02;;;;;;;7.18;4.60;;;;;;;;;;5044783;28;20052;-79
2024/01/08 06:06:28;;;;;;;6.22;3.80;;;;;;;;;;5039483;28;20030;-80
2024/01/08 06:08:54;;;;;;;10.38;4.65;;;;;;;;;;5049511;28;20079;-80
2024/01/08 06:11:20;;;;;;;7.45;4.47;;;;;;;;;;5057578;28;20017;-79
2024/01/08 06:13:46;;;;;;;5.85;3.55;;;;;;;;;;5056492;28;20112;-80
2024/01/08 06:16:16;;;;;;;6.63;4.13;;;;;;;;;;5060686;28;20388;-80
2024/01/08 06:18:42;;;;;;;6.97;4.15;;;;;;;;;;5053752;28;20075;-80
2024/01/08 06:21:08;;;;;;;7.95;4.70;;;;;;;;;;5058368;28;20093;-82
2024/01/08 06:23:35;;;;;;;7.85;4.88;;;;;;;;;;5045903;28;20030;-79
2024/01/08 06:26:04;;;;;;;7.90;4.63;;;;;;;;;;5044348;28;20025;-79
2024/01/08 06:28:32;;;;;;;7.25;4.82;;;;;;;;;;5052583;28;20108;-80
2024/01/08 06:30:58;;;;;;;6.88;4.78;;;;;;;;;;5045780;28;20025;-80
2024/01/08 06:33:24;;;;;;;6.25;4.35;;;;;;;;;;5054660;28;20025;-82
2024/01/08 06:35:50;;;;;;;6.70;4.43;;;;;;;;;;5068496;28;20032;-80
2024/01/08 06:38:17;;;;;;;8.20;4.65;;;;;;;;;;5045952;28;20101;-79
2024/01/08 06:40:43;;;;;;;10.15;5.10;;;;;;;;;;5061186;28;20071;-80
2024/01/08 06:43:09;;;;;;;9.32;5.22;;;;;;;;;;5043557;28;20033;-79
2024/01/08 06:45:35;;;;;;;7.10;4.95;;;;;;;;;;5052603;28;20052;-78
2024/01/08 06:48:01;;;;;;;6.80;4.15;;;;;;;;;;5044449;28;20032;-80
2024/01/08 06:50:27;;;;;;;7.10;5.13;;;;;;;;;;5054085;28;20032;-80
2024/01/08 06:52:54;;;;;;;7.78;4.47;;;;;;;;;;5050865;28;20393;-80
2024/01/08 06:55:20;;;;;;;4.95;3.80;;;;;;;;;;5061434;28;20029;-80
2024/01/08 06:57:48;;;;;;;5.55;3.97;;;;;;;;;;5058694;28;20036;-81
2024/01/08 07:00:14;;;;;;;7.82;4.60;;;;;;;;;;5055228;28;20044;-80
2024/01/08 07:02:40;;;;;;;9.93;4.75;;;;;;;;;;5048484;28;20162;-80
2024/01/08 07:05:06;;;;;;;6.88;4.75;;;;;;;;;;5049934;28;20056;-80
2024/01/08 07:07:33;;;;;;;6.88;5.03;;;;;;;;;;5067612;28;20025;-78
2024/01/08 07:09:59;;;;;;;6.72;4.82;;;;;;;;;;5052826;28;20021;-81
2024/01/08 07:12:25;;;;;;;7.65;4.97;;;;;;;;;;5049657;28;20056;-80
2024/01/08 07:14:52;;;;;;;8.80;5.32;;;;;;;;;;5057911;28;20022;-79
2024/01/08 07:17:18;;;;;;;8.77;5.57;;;;;;;;;;5044234;28;20025;-80
2024/01/08 07:19:44;;;;;;;7.53;4.80;;;;;;;;;;5058154;28;20025;-80
2024/01/08 07:22:10;;;;;;;8.90;5.90;;;;;;;;;;5056761;28;20024;-79
2024/01/08 07:24:37;;;;;;;12.25;5.63;;;;;;;;;;5053915;28;20484;-80
2024/01/08 07:27:03;;;;;;;8.13;4.93;;;;;;;;;;5042148;28;20029;-80
2024/01/08 07:29:29;;;;;;;8.82;5.85;;;;;;;;;;5049634;28;20115;-80
2024/01/08 07:31:55;;;;;;;9.18;5.85;;;;;;;;;;5055283;28;20024;-79
2024/01/08 07:34:21;;;;;;;8.70;5.43;;;;;;;;;;5045148;28;20029;-80
2024/01/08 07:36:47;;;;;;;10.13;5.53;;;;;;;;;;5057605;28;20030;-80
2024/01/08 07:39:14;;;;;;;8.48;5.30;;;;;;;;;;5058274;28;20604;-79
2024/01/08 07:41:41;;;;;;;7.95;5.50;;;;;;;;;;5043957;28;20029;-80
2024/01/08 07:44:07;;;;;;;8.13;5.60;;;;;;;;;;5062099;28;20033;-81
2024/01/08 07:46:33;;;;;;;8.80;5.22;;;;;;;;;;5045734;28;20025;-82
2024/01/08 07:49:00;;;;;;;10.30;5.53;;;;;;;;;;5053859;28;20083;-81
2024/01/08 07:51:26;;;;;;;7.25;4.95;;;;;;;;;;5062411;28;20043;-78
2024/01/08 07:53:55;;;;;;;7.97;5.10;;;;;;;;;;5067347;28;20021;-78
2024/01/08 07:56:25;;;;;;;9.57;5.25;;;;;;;;;;5051211;28;20534;-78
2024/01/08 07:58:51;;;;;;;8.90;5.30;;;;;;;;;;5044963;28;20527;-80
2024/01/08 08:01:17;;;;;;;9.40;5.35;;;;;;;;;;5056301;28;20086;-80
2024/01/08 08:03:43;;;;;;;10.90;5.30;;;;;;;;;;5062399;28;20028;-80
2024/01/08 08:06:10;;;;;;;10.18;5.80;;;;;;;;;;5063413;28;20380;-79
2024/01/08 08:08:37;;;;;;;8.60;5.68;;;;;;;;;;5062807;28;20032;-79
2024/01/08 08:11:06;;;;;;;6.95;4.45;;;;;;;;;;5070377;28;20120;-80
2024/01/08 08:13:32;;;;;;;9.43;6.22;;;;;;;;;;5071253;28;20013;-77
2024/01/08 08:15:59;;;;;;;8.90;5.53;;;;;;;;;;5050747;28;20032;-77
2024/01/08 08:18:25;;;;;;;9.68;4.95;;;;;;;;;;5062557;28;20495;-77
2024/01/08 08:20:52;;;;;;;9.45;5.88;;;;;;;;;;5048629;28;20017;-77
2024/01/08 08:23:18;;;;;;;11.43;6.90;;;;;;;;;;5068365;28;20021;-77
2024/01/08 08:25:44;;;;;;;8.23;5.78;;;;;;;;;;5056051;28;20445;-79
2024/01/08 08:28:10;;;;;;;10.35;5.88;;;;;;;;;;5035190;28;20030;-77
2024/01/08 08:30:36;;;;;;;8.73;5.25;;;;;;;;;;5042567;28;20080;-78
2024/01/08 08:33:03;;;;;;;9.98;6.20;;;;;;;;;;5034556;28;20033;-78
2024/01/08 08:35:29;;;;;;;9.32;6.53;;;;;;;;;;5033557;28;20488;-79
2024/01/08 08:37:57;;;;;;;7.97;5.13;;;;;;;;;;5046123;28;20108;-77
2024/01/08 08:40:23;;;;;;;8.20;5.53;;;;;;;;;;5033183;28;20079;-77
2024/01/08 08:42:49;;;;;;;10.23;6.32;;;;;;;;;;5033706;28;20029;-78
2024/01/08 08:45:18;;;;;;;8.68;5.88;;;;;;;;;;5047987;28;20078;-77
2024/01/08 08:47:44;;;;;;;11.77;5.60;;;;;;;;;;5043147;28;20056;-76
2024/01/08 08:50:12;;;;;;;8.43;5.95;;;;;;;;;;5034952;28;20029;-77
2024/01/08 08:52:39;;;;;;;9.00;6.65;;;;;;;;;;5035066;28;20060;-76
2024/01/08 08:55:05;;;;;;;8.45;5.85;;;;;;;;;;5034261;28;20037;-77
2024/01/08 08:57:31;;;;;;;8.98;5.72;;;;;;;;;;5049580;28;20085;-77
2024/01/08 08:59:57;;;;;;;7.97;5.55;;;;;;;;;;5044211;28;20392;-78
2024/01/08 09:02:24;;;;;;;8.93;5.30;;;;;;;;;;5054699;28;20025;-78
2024/01/08 09:04:50;;;;;;;8.65;6.20;;;;;;;;;;5053655;28;20044;-78
2024/01/08 09:07:16;;;;;;;10.50;6.13;;;;;;;;;;5063540;28;20041;-77
2024/01/08 09:09:42;;;;;;;7.80;5.03;;;;;;;;;;5042659;28;20032;-78
2024/01/08 09:12:09;;;;;;;7.63;5.28;;;;;;;;;;5032868;28;20029;-78
2024/01/08 09:14:35;;;;;;;11.45;6.70;;;;;;;;;;5033546;28;20036;-77
2024/01/08 09:17:02;;;;;;;9.50;5.75;;;;;;;;;;5040590;28;20034;-78
2024/01/08 09:19:29;;;;;;;10.55;5.72;;;;;;;;;;5033623;28;20440;-78
2024/01/08 09:21:55;;;;;;;13.57;6.90;;;;;;;;;;5033749;28;20037;-77
2024/01/08 09:24:21;;;;;;;10.75;6.20;;;;;;;;;;5050894;28;20402;-77
2024/01/08 09:26:47;;;;;;;8.75;5.75;;;;;;;;;;5054188;28;20033;-78
2024/01/08 09:29:13;;;;;;;11.63;6.75;;;;;;;;;;5054104;28;20037;-78
2024/01/08 09:31:39;;;;;;;14.95;6.75;;;;;;;;;;5056039;28;20036;-77
2024/01/08 09:34:06;;;;;;;12.65;6.57;;;;;;;;;;5040875;28;20028;-77
2024/01/08 09:36:32;;;;;;;12.52;6.72;;;;;;;;;;5048965;28;20056;-76
2024/01/08 09:38:58;;;;;;;10.70;6.18;;;;;;;;;;5046841;28;20528;-76
2024/01/08 09:41:24;;;;;;;11.20;5.97;;;;;;;;;;5049446;28;20021;-77
2024/01/08 09:43:52;;;;;;;9.20;5.70;;;;;;;;;;5037358;28;20091;-78
2024/01/08 09:46:27;;;;;;;9.98;5.72;;;;;;;;;;5045306;28;20030;-78
2024/01/08 09:48:54;;;;;;;10.40;6.50;;;;;;;;;;5059268;28;20124;-78
2024/01/08 09:51:21;;;;;;;9.52;5.90;;;;;;;;;;5048722;28;20028;-77
2024/01/08 09:53:48;;;;;;;11.80;6.60;;;;;;;;;;5059367;28;20025;-79
2024/01/08 09:56:14;;;;;;;8.35;6.15;;;;;;;;;;5049852;28;20025;-78
2024/01/08 09:58:40;;;;;;;11.02;5.70;;;;;;;;;;5058887;28;20036;-77
2024/01/08 10:01:06;;;;;;;9.10;5.88;;;;;;;;;;5054847;28;20021;-80
2024/01/08 10:03:33;;;;;;;9.57;5.90;;;;;;;;;;5050494;28;20021;-79
2024/01/08 10:06:25;;;;;;;9.85;6.13;;;;;;;;;;5045859;28;20059;-81
2024/01/08 10:08:52;;;;;;;9.52;5.45;;;;;;;;;;5054614;28;20473;-79
2024/01/08 10:11:18;;;;;;;9.13;5.07;;;;;;;;;;5057516;28;20106;-80
2024/01/08 10:13:44;;;;;;;12.30;6.60;;;;;;;;;;5057818;28;20027;-79
2024/01/08 10:16:11;;;;;;;10.07;6.22;;;;;;;;;;5059952;28;20029;-78
2024/01/08 10:18:38;;;;;;;10.27;7.05;;;;;;;;;;5042282;28;20101;-79
2024/01/08 10:21:09;;;;;;;11.02;6.75;;;;;;;;;;5052756;28;20037;-80
2024/01/08 10:23:35;;;;;;;11.65;7.05;;;;;;;;;;5056108;28;20049;-79
2024/01/08 10:26:01;;;;;;;10.07;6.47;;;;;;;;;;5057603;28;20025;-79
2024/01/08 10:28:35;;;;;;;10.52;6.53;;;;;;;;;;5055537;28;20104;-78
2024/01/08 10:31:02;;;;;;;12.52;7.38;;;;;;;;;;5063362;28;20025;-78
2024/01/08 10:33:29;;;;;;;9.95;6.68;;;;;;;;;;5064543;28;20063;-79
2024/01/08 10:35:56;;;;;;;12.10;7.00;;;;;;;;;;5066523;28;20025;-80
2024/01/08 10:38:22;;;;;;;8.98;6.30;;;;;;;;;;5063445;28;20116;-79
2024/01/08 10:40:48;;;;;;;11.00;7.07;;;;;;;;;;5067603;28;20020;-79
2024/01/08 10:43:14;;;;;;;10.90;6.80;;;;;;;;;;5070155;28;20044;-79
2024/01/08 10:45:41;;;;;;;13.27;7.15;;;;;;;;;;5056425;28;20034;-78
2024/01/08 10:48:18;;;;;;;10.73;6.80;;;;;;;;;;5069479;28;20021;-78
2024/01/08 10:50:46;;;;;;;9.85;6.63;;;;;;;;;;5076244;28;20041;-78
2024/01/08 10:53:15;;;;;;;10.55;5.82;;;;;;;;;;5076086;28;20182;-79
2024/01/08 10:55:43;;;;;;;9.73;6.60;;;;;;;;;;5078650;28;20047;-82
2024/01/08 10:58:09;;;;;;;11.10;6.50;;;;;;;;;;5077819;28;20063;-79
2024/01/08 11:00:36;;;;;;;10.13;6.60;;;;;;;;;;5068886;28;20018;-81
2024/01/08 11:03:02;;;;;;;9.48;6.25;;;;;;;;;;5053064;28;20026;-78
2024/01/08 11:05:29;;;;;;;12.82;7.18;;;;;;;;;;5063690;28;20029;-79
2024/01/08 11:07:56;;;;;;;11.20;6.28;;;;;;;;;;5076696;28;20033;-80
2024/01/08 11:10:25;;;;;;;10.75;5.85;;;;;;;;;;5072464;28;20092;-79
2024/01/08 11:12:55;;;;;;;9.48;6.28;;;;;;;;;;5071718;28;20521;-79
2024/01/08 11:15:25;;;;;;;10.65;5.78;;;;;;;;;;5056996;28;20044;-80
2024/01/08 11:17:54;;;;;;;8.43;5.75;;;;;;;;;;5064666;28;20045;-79
2024/01/08 11:20:33;;;;;;;9.27;6.18;;;;;;;;;;5052730;28;20165;-78
2024/01/08 11:22:59;;;;;;;9.93;6.50;;;;;;;;;;5063409;28;20054;-79
2024/01/08 11:25:26;;;;;;;10.75;6.70;;;;;;;;;;5057537;28;20031;-80
2024/01/08 11:27:52;;;;;;;8.75;6.10;;;;;;;;;;5051923;28;20025;-79
2024/01/08 11:30:18;;;;;;;11.10;5.78;;;;;;;;;;5037135;28;20025;-79
2024/01/08 11:32:44;;;;;;;10.57;6.25;;;;;;;;;;5044315;28;20049;-79
2024/01/08 11:35:13;;;;;;;9.52;5.82;;;;;;;;;;5054683;28;20081;-79
2024/01/08 11:37:44;;;;;;;9.15;5.90;;;;;;;;;;5055288;28;20472;-80
2024/01/08 11:40:16;;;;;;;7.53;5.60;;;;;;;;;;5050296;28;20053;-78
2024/01/08 11:42:46;;;;;;;13.23;6.88;;;;;;;;;;5048401;28;20411;-79
2024/01/08 11:45:12;;;;;;;11.93;6.45;;;;;;;;;;5063562;28;20049;-79
2024/01/08 11:47:39;;;;;;;8.13;5.82;;;;;;;;;;5046687;28;20037;-79
2024/01/08 11:50:06;;;;;;;13.80;6.50;;;;;;;;;;5052207;28;20081;-77
2024/01/08 11:52:33;;;;;;;10.50;6.68;;;;;;;;;;5037673;28;20021;-78
2024/01/08 11:55:00;;;;;;;11.10;6.10;;;;;;;;;;5044837;28;20021;-79
2024/01/08 11:57:26;;;;;;;11.93;5.93;;;;;;;;;;5035181;28;20037;-79
2024/01/08 11:59:52;;;;;;;9.07;5.95;;;;;;;;;;5041889;28;20092;-78
2024/01/08 12:02:18;;;;;;;10.00;5.93;;;;;;;;;;5035199;28;20036;-79
2024/01/08 12:04:52;;;;;;;8.93;5.63;;;;;;;;;;5058296;28;20443;-78
2024/01/08 12:07:18;;;;;;;8.77;6.30;;;;;;;;;;5061417;28;20025;-78
2024/01/08 12:09:44;;;;;;;8.27;5.57;;;;;;;;;;5046491;28;20045;-78
2024/01/08 12:12:11;;;;;;;12.13;6.63;;;;;;;;;;5057209;28;20549;-79
2024/01/08 12:14:39;;;;;;;9.23;5.85;;;;;;;;;;5044254;28;20391;-78
2024/01/08 12:17:05;;;;;;;8.20;5.95;;;;;;;;;;5059682;28;20021;-78
2024/01/08 12:19:40;;;;;;;8.75;6.10;;;;;;;;;;5059885;28;20067;-77
2024/01/08 12:22:07;;;;;;;10.05;6.63;;;;;;;;;;5041554;28;20021;-78
2024/01/08 12:24:34;;;;;;;8.63;6.15;;;;;;;;;;5052398;28;20048;-78
2024/01/08 12:27:03;;;;;;;9.52;6.72;;;;;;;;;;5040955;28;20025;-80
2024/01/08 12:29:30;;;;;;;10.23;7.35;;;;;;;;;;5055028;28;20021;-78
2024/01/08 12:32:00;;;;;;;10.10;5.95;;;;;;;;;;5048706;28;20025;-78
2024/01/08 12:34:30;;;;;;;10.13;7.10;;;;;;;;;;5053825;28;20103;-79
2024/01/08 12:36:58;;;;;;;11.02;7.20;;;;;;;;;;5056384;28;20120;-78
2024/01/08 12:39:25;;;;;;;9.65;6.50;;;;;;;;;;5055614;28;20096;-78
2024/01/08 12:41:55;;;;;;;12.82;7.35;;;;;;;;;;5052451;28;20430;-79
2024/01/08 12:44:22;;;;;;;8.27;6.65;;;;;;;;;;5050578;28;20120;-78
2024/01/08 12:46:48;;;;;;;12.00;7.20;;;;;;;;;;5040145;28;20458;-77
2024/01/08 12:49:14;;;;;;;9.98;6.20;;;;;;;;;;5056719;28;20025;-79
2024/01/08 12:51:41;;;;;;;10.30;6.72;;;;;;;;;;5045074;28;20562;-79
2024/01/08 12:54:12;;;;;;;11.70;7.88;;;;;;;;;;5051025;28;20017;-79
2024/01/08 12:56:38;;;;;;;8.65;6.70;;;;;;;;;;5029021;28;20022;-80
2024/01/08 12:59:04;;;;;;;12.02;7.53;;;;;;;;;;5043583;28;20068;-79
2024/01/08 13:01:31;;;;;;;9.82;6.85;;;;;;;;;;5055497;28;20025;-79
2024/01/08 13:03:58;;;;;;;10.77;6.35;;;;;;;;;;5049840;28;20089;-80
2024/01/08 13:06:24;;;;;;;8.43;6.07;;;;;;;;;;5059649;28;20044;-80
2024/01/08 13:08:50;;;;;;;8.38;5.22;;;;;;;;;;5049940;28;20029;-80
2024/01/08 13:11:16;;;;;;;10.20;7.20;;;;;;;;;;5050152;28;20029;-81
2024/01/08 13:13:43;;;;;;;11.68;6.72;;;;;;;;;;5047935;28;20026;-80
2024/01/08 13:16:09;;;;;;;10.82;7.20;;;;;;;;;;5045235;28;20120;-80
2024/01/08 13:18:35;;;;;;;9.52;6.50;;;;;;;;;;5042485;28;20035;-80
2024/01/08 13:21:02;;;;;;;10.80;7.15;;;;;;;;;;5041037;28;20088;-78
2024/01/08 13:23:28;;;;;;;9.88;6.75;;;;;;;;;;5033749;28;20508;-80
2024/01/08 13:25:54;;;;;;;10.10;6.57;;;;;;;;;;5043705;28;20040;-80
2024/01/08 13:28:20;;;;;;;8.80;6.28;;;;;;;;;;5045169;28;20030;-80
2024/01/08 13:30:46;;;;;;;9.93;5.90;;;;;;;;;;5042924;28;20048;-81
2024/01/08 13:33:13;;;;;;;9.90;6.30;;;;;;;;;;5044947;28;20022;-80
2024/01/08 13:35:39;;;;;;;9.68;6.18;;;;;;;;;;5052015;28;20021;-81
2024/01/08 13:38:05;;;;;;;9.82;6.22;;;;;;;;;;5050465;28;20026;-79
2024/01/08 13:40:31;;;;;;;8.75;6.43;;;;;;;;;;5040845;28;20387;-80
2024/01/08 13:42:57;;;;;;;8.45;5.85;;;;;;;;;;5042759;28;20487;-79
2024/01/08 13:45:23;;;;;;;9.38;5.88;;;;;;;;;;5053297;28;20085;-79
2024/01/08 13:47:50;;;;;;;8.57;5.85;;;;;;;;;;5053027;28;20013;-79
2024/01/08 13:50:21;;;;;;;7.53;5.35;;;;;;;;;;5053561;28;20103;-78
2024/01/08 13:52:47;;;;;;;8.00;5.55;;;;;;;;;;5056038;28;20118;-80
2024/01/08 13:55:14;;;;;;;9.40;5.55;;;;;;;;;;5046845;28;20025;-79
2024/01/08 13:57:40;;;;;;;8.68;6.03;;;;;;;;;;5044053;28;20029;-79
2024/01/08 14:00:07;;;;;;;8.30;5.65;;;;;;;;;;5055775;28;20036;-79
2024/01/08 14:02:34;;;;;;;10.10;5.72;;;;;;;;;;5049839;28;20446;-79
2024/01/08 14:05:00;;;;;;;9.27;5.45;;;;;;;;;;5051623;28;20026;-79
2024/01/08 14:07:26;;;;;;;8.40;5.53;;;;;;;;;;5043997;28;20033;-79
2024/01/08 14:09:52;;;;;;;11.05;6.00;;;;;;;;;;5041778;28;20025;-79
2024/01/08 14:12:18;;;;;;;7.28;4.95;;;;;;;;;;5049235;28;20109;-77
2024/01/08 14:14:51;;;;;;;9.70;5.93;;;;;;;;;;5050552;28;20125;-80
2024/01/08 14:17:17;;;;;;;8.63;5.97;;;;;;;;;;5051402;28;20029;-81
2024/01/08 14:19:43;;;;;;;8.63;5.63;;;;;;;;;;5062839;28;20464;-79
2024/01/08 14:22:09;;;;;;;9.52;5.68;;;;;;;;;;5067847;28;20059;-77
2024/01/08 14:24:36;;;;;;;8.82;5.85;;;;;;;;;;5069548;28;20029;-78
2024/01/08 14:27:02;;;;;;;11.85;5.57;;;;;;;;;;5060447;28;20085;-78
2024/01/08 14:29:29;;;;;;;8.80;5.35;;;;;;;;;;5053640;28;20032;-78
2024/01/08 14:31:55;;;;;;;8.68;5.38;;;;;;;;;;5067122;28;20029;-78
2024/01/08 14:34:24;;;;;;;9.27;6.00;;;;;;;;;;5067225;28;20040;-77
2024/01/08 14:36:52;;;;;;;7.35;5.18;;;;;;;;;;5044352;28;20022;-78